KULM

Details ICAO KULM
Name NEW ULM MUNI
Region United States
Timezone America/Chicago (UTC-6.0)
Plans Departing 1
Arriving 0
Stats Elevation 1,011 ft / 308 m (AMSL)
Location 44.319646° -94.502186°
Runways 2
Magnetic Variation 1.275° E
Sunrise 2017-12-17 13:49:54 UTC / 2017-12-17 07:49:54 Local
Sunset 2017-12-17 22:41:21 UTC / 2017-12-17 16:41:21 Local
Advertisement - Login to hide

Runways

ID Width Length Bearing (true) Bearing (mag) Surface Threshold Offset Overrun Length
04 160 ft / 49 m 2,839 ft / 865 m 50.01° 48.74° Grass 0 ft / 0 m 0 ft / 0 m
15 75 ft / 23 m 4,401 ft / 1,341 m 150.84° 149.57° Asphalt 0 ft / 0 m 0 ft / 0 m
22 160 ft / 49 m 2,839 ft / 865 m 230.02° 228.75° Grass 0 ft / 0 m 0 ft / 0 m
33 75 ft / 23 m 4,401 ft / 1,341 m 330.85° 329.58° Asphalt 0 ft / 0 m 0 ft / 0 m

Map

Weather


0- 5 10 15 20 25 30 35+ Temperature / ° C

Clouds and Precipitation
Forecast for 2017-12-18 00:00 UTC. Updated 13 minutes ago

Ground ~20,000 ft ~40,000 ft Winds

METAR

KULM 172135Z AUTO 00000KT 10SM OVC110 M01/M06 A2997 RMK AO2

TAF

Not found

Frequencies

Recorded 118.32 MHz AWOS 3
Unicom 122.80 MHz CTAF/UNICOM
Warning: Do not use this data for real-world aviation or navigation. No guarantee of current accuracy is given.